createdAt,value
2022-12-18T00:02:03.166Z,-6.53
2022-12-18T00:04:34.360Z,-6.53
2022-12-18T00:07:04.957Z,-6.51
2022-12-18T00:09:39.853Z,-6.49
2022-12-18T00:14:49.591Z,-6.56
2022-12-18T00:17:19.149Z,-6.57
2022-12-18T00:19:49.921Z,-6.57
2022-12-18T00:22:23.636Z,-6.54
2022-12-18T00:24:52.706Z,-6.50
2022-12-18T00:27:23.419Z,-6.47
2022-12-18T00:29:54.086Z,-6.51
2022-12-18T00:32:24.649Z,-6.57
2022-12-18T00:34:55.286Z,-6.56
2022-12-18T00:37:25.927Z,-6.47
2022-12-18T00:39:56.592Z,-6.44
2022-12-18T00:42:44.935Z,-6.39
2022-12-18T00:45:16.027Z,-6.36
2022-12-18T00:47:47.646Z,-6.38
2022-12-18T00:50:18.594Z,-6.43
2022-12-18T00:52:49.583Z,-6.52
2022-12-18T00:55:20.421Z,-6.58
2022-12-18T00:57:52.816Z,-6.64
2022-12-18T01:00:24.302Z,-6.72
2022-12-18T01:02:55.135Z,-6.84
2022-12-18T01:05:25.748Z,-6.85
2022-12-18T01:07:57.185Z,-6.82
2022-12-18T01:10:28.332Z,-6.88
2022-12-18T01:13:02.002Z,-6.96
2022-12-18T01:15:32.628Z,-7.04
2022-12-18T01:18:03.321Z,-6.91
2022-12-18T01:20:36.484Z,-6.88
2022-12-18T01:23:10.022Z,-6.89
2022-12-18T01:25:40.722Z,-6.92
2022-12-18T01:28:13.765Z,-6.98
2022-12-18T01:30:45.062Z,-7.08
2022-12-18T01:33:17.081Z,-7.12
2022-12-18T01:35:47.705Z,-7.12
2022-12-18T01:38:19.246Z,-7.07
2022-12-18T01:40:50.056Z,-7.00
2022-12-18T01:43:20.684Z,-6.92
2022-12-18T01:45:51.431Z,-6.90
2022-12-18T01:48:22.313Z,-6.87
2022-12-18T01:50:52.927Z,-6.90
2022-12-18T01:53:26.377Z,-6.92
2022-12-18T01:55:59.707Z,-6.97
2022-12-18T01:58:37.951Z,-6.99
2022-12-18T02:01:09.218Z,-6.98
2022-12-18T02:03:42.981Z,-6.99
2022-12-18T02:06:19.112Z,-7.00
2022-12-18T02:09:03.688Z,-7.02
2022-12-18T02:11:46.318Z,-7.01
2022-12-18T02:14:25.742Z,-7.02
2022-12-18T02:17:06.406Z,-7.00
2022-12-18T02:20:03.774Z,-7.03
2022-12-18T02:22:47.045Z,-7.15
2022-12-18T02:25:30.455Z,-7.24
2022-12-18T02:28:02.295Z,-7.32
2022-12-18T02:30:37.268Z,-7.38
2022-12-18T02:33:11.153Z,-7.40
2022-12-18T02:35:46.265Z,-7.36
2022-12-18T02:38:18.309Z,-7.28
2022-12-18T02:40:51.014Z,-7.15
2022-12-18T02:43:21.907Z,-7.03
2022-12-18T02:45:55.810Z,-6.98
2022-12-18T02:48:30.093Z,-6.94
2022-12-18T02:51:06.378Z,-6.91
2022-12-18T02:53:42.315Z,-6.88
2022-12-18T02:56:20.354Z,-6.88
2022-12-18T02:58:55.900Z,-6.87
2022-12-18T03:01:44.164Z,-6.79
2022-12-18T03:04:22.263Z,-6.80
2022-12-18T03:06:56.819Z,-6.89
2022-12-18T03:09:34.495Z,-6.99
2022-12-18T03:12:25.674Z,-7.12
2022-12-18T03:15:02.908Z,-7.21
2022-12-18T03:17:35.990Z,-7.28
2022-12-18T03:20:12.225Z,-7.33
2022-12-18T03:22:46.396Z,-7.31
2022-12-18T03:25:19.624Z,-7.24
2022-12-18T03:27:56.535Z,-7.20
2022-12-18T03:30:30.197Z,-7.14
2022-12-18T03:33:04.038Z,-7.02
2022-12-18T03:35:39.511Z,-6.95
2022-12-18T03:38:11.553Z,-6.89
2022-12-18T03:40:53.410Z,-6.90
2022-12-18T03:43:37.869Z,-6.94
2022-12-18T03:46:17.699Z,-7.06
2022-12-18T03:49:01.104Z,-7.16
2022-12-18T03:51:41.894Z,-7.15
2022-12-18T03:54:14.416Z,-7.10
2022-12-18T03:56:53.229Z,-7.11
2022-12-18T03:59:27.026Z,-7.06
2022-12-18T04:02:01.785Z,-6.96
2022-12-18T04:04:36.321Z,-6.92
2022-12-18T04:07:08.963Z,-6.81
2022-12-18T04:09:43.932Z,-6.73
2022-12-18T04:12:14.650Z,-6.65
2022-12-18T04:14:45.945Z,-6.60
2022-12-18T04:17:17.733Z,-6.64
2022-12-18T04:19:48.828Z,-6.67
2022-12-18T04:22:19.970Z,-6.67
2022-12-18T04:24:52.206Z,-6.70
2022-12-18T04:27:29.346Z,-6.79
2022-12-18T04:30:01.903Z,-6.88
2022-12-18T04:32:35.148Z,-6.97
2022-12-18T04:35:11.530Z,-7.09
2022-12-18T04:37:42.946Z,-7.15
2022-12-18T04:40:15.642Z,-7.23
2022-12-18T04:42:46.351Z,-7.36
2022-12-18T04:45:17.135Z,-7.54
2022-12-18T04:47:47.914Z,-7.63
2022-12-18T04:50:18.684Z,-7.62
2022-12-18T04:52:49.697Z,-7.61
2022-12-18T04:55:20.362Z,-7.58
2022-12-18T04:57:51.657Z,-7.50
2022-12-18T05:00:22.986Z,-7.46
2022-12-18T05:02:53.837Z,-7.40
2022-12-18T05:05:25.438Z,-7.35
2022-12-18T05:07:56.169Z,-7.36
2022-12-18T05:10:26.908Z,-7.34
2022-12-18T05:13:00.822Z,-7.28
2022-12-18T05:15:33.522Z,-7.24
2022-12-18T05:18:04.895Z,-7.24
2022-12-18T05:20:35.614Z,-7.29
2022-12-18T05:23:06.406Z,-7.42
2022-12-18T05:25:37.116Z,-7.50
2022-12-18T05:28:08.164Z,-7.58
2022-12-18T05:30:38.887Z,-7.65
2022-12-18T05:33:09.563Z,-7.82
2022-12-18T05:35:40.194Z,-8.02
2022-12-18T05:38:10.873Z,-8.10
2022-12-18T05:40:45.468Z,-8.13
2022-12-18T05:43:21.006Z,-8.21
2022-12-18T05:45:53.019Z,-8.28
2022-12-18T05:48:24.479Z,-8.24
2022-12-18T05:50:55.284Z,-8.20
2022-12-18T05:53:25.907Z,-8.13
2022-12-18T05:55:56.475Z,-8.03
2022-12-18T05:58:27.207Z,-8.01
2022-12-18T06:00:58.292Z,-8.03
2022-12-18T06:03:33.705Z,-8.01
2022-12-18T06:06:04.847Z,-7.97
2022-12-18T06:08:35.503Z,-7.92
2022-12-18T06:11:06.508Z,-7.86
2022-12-18T06:13:37.572Z,-7.70
2022-12-18T06:16:10.040Z,-6.19
2022-12-18T06:18:43.871Z,-5.56
2022-12-18T06:21:14.675Z,-5.81
2022-12-18T06:23:45.456Z,-6.06
2022-12-18T06:26:16.706Z,-6.31
2022-12-18T06:28:47.581Z,-6.56
2022-12-18T06:31:18.302Z,-6.80
2022-12-18T06:33:49.062Z,-7.02
2022-12-18T06:36:20.665Z,-7.23
2022-12-18T06:38:51.663Z,-7.47
2022-12-18T06:41:24.062Z,-7.67
2022-12-18T06:43:59.329Z,-7.76
2022-12-18T06:46:30.564Z,-7.79
2022-12-18T06:49:01.403Z,-7.81
2022-12-18T06:51:32.085Z,-7.89
2022-12-18T06:54:03.107Z,-7.96
2022-12-18T06:56:34.474Z,-8.03
2022-12-18T06:59:05.273Z,-8.11
2022-12-18T07:01:36.050Z,-8.21
2022-12-18T07:04:07.138Z,-8.28
2022-12-18T07:06:37.960Z,-8.29
2022-12-18T07:09:08.842Z,-8.17
2022-12-18T07:11:39.477Z,-8.08
2022-12-18T07:14:10.179Z,-7.95
2022-12-18T07:16:41.881Z,-7.93
2022-12-18T07:19:12.665Z,-7.90
2022-12-18T07:21:43.387Z,-7.87
2022-12-18T07:24:15.339Z,-7.85
2022-12-18T07:26:47.598Z,-7.85
2022-12-18T07:29:18.475Z,-7.86
2022-12-18T07:31:49.290Z,-7.80
2022-12-18T07:34:20.202Z,-7.75
2022-12-18T07:36:50.924Z,-7.74
2022-12-18T07:39:21.706Z,-7.76
2022-12-18T07:42:06.401Z,-7.67
2022-12-18T07:44:38.205Z,-7.48
2022-12-18T07:47:11.957Z,-7.30
2022-12-18T07:49:43.067Z,-7.09
2022-12-18T07:52:14.394Z,-6.95
2022-12-18T07:54:45.054Z,-6.80
2022-12-18T07:57:49.040Z,-6.64
2022-12-18T08:00:15.198Z,-6.47
2022-12-18T08:02:45.895Z,-6.32
2022-12-18T08:05:17.193Z,-6.16
2022-12-18T08:07:47.840Z,-6.05
2022-12-18T08:10:19.066Z,-5.96
2022-12-18T08:12:53.131Z,-5.83
2022-12-18T08:15:23.868Z,-5.70
2022-12-18T08:17:54.565Z,-5.54
2022-12-18T08:20:25.214Z,-5.43
2022-12-18T08:22:55.923Z,-5.35
2022-12-18T08:25:26.631Z,-5.26
2022-12-18T08:27:58.414Z,-5.10
2022-12-18T08:30:29.251Z,-5.01
2022-12-18T08:33:00.298Z,-4.89
2022-12-18T08:35:36.341Z,-4.79
2022-12-18T08:38:08.831Z,-4.59
2022-12-18T08:40:39.462Z,-4.42
2022-12-18T08:43:29.856Z,-4.23
2022-12-18T08:46:00.473Z,-4.05
2022-12-18T08:48:31.401Z,-4.00
2022-12-18T08:51:02.900Z,-3.87
2022-12-18T08:53:35.786Z,-3.68
2022-12-18T08:56:08.137Z,-3.49
2022-12-18T08:58:38.733Z,-3.29
2022-12-18T09:01:11.968Z,-3.06
2022-12-18T09:03:43.890Z,-2.85
2022-12-18T09:06:17.736Z,-2.64
2022-12-18T09:08:48.635Z,-2.48
2022-12-18T09:11:23.465Z,-2.35
2022-12-18T09:13:55.726Z,-2.21
2022-12-18T09:16:32.394Z,-2.15
2022-12-18T09:19:04.058Z,-2.16
2022-12-18T09:21:37.514Z,-2.19
2022-12-18T09:24:14.041Z,-2.15
2022-12-18T09:26:47.343Z,-2.12
2022-12-18T09:29:18.904Z,-2.12
2022-12-18T09:31:50.549Z,-2.16
2022-12-18T09:34:22.825Z,-2.18
2022-12-18T09:36:53.979Z,-2.13
2022-12-18T09:39:24.947Z,-2.04
2022-12-18T09:41:58.113Z,-1.96
2022-12-18T09:44:31.948Z,-1.92
2022-12-18T09:47:11.702Z,-1.82
2022-12-18T09:49:45.304Z,-1.69
2022-12-18T09:52:21.887Z,-1.56
2022-12-18T09:54:57.514Z,-1.40
2022-12-18T09:57:28.820Z,-1.26
2022-12-18T10:00:05.577Z,-1.17
2022-12-18T10:03:03.060Z,-1.06
2022-12-18T10:05:43.006Z,-0.95
2022-12-18T10:08:20.240Z,-0.82
2022-12-18T10:10:55.277Z,-0.68
2022-12-18T10:13:33.697Z,-0.48
2022-12-18T10:16:11.795Z,-0.33
2022-12-18T10:18:59.821Z,-0.27
2022-12-18T10:21:38.257Z,-0.18
2022-12-18T10:24:20.902Z,-0.09
2022-12-18T10:26:51.792Z,-0.02
2022-12-18T10:29:23.439Z,-0.04
2022-12-18T10:31:54.282Z,-0.04
2022-12-18T10:34:25.868Z,-0.07
2022-12-18T10:36:56.770Z,-0.08
2022-12-18T10:39:28.203Z,-0.08
2022-12-18T10:42:14.692Z,-0.06
2022-12-18T10:44:45.359Z,-0.06
2022-12-18T10:47:20.313Z,-0.06
2022-12-18T10:49:55.947Z,-0.09
2022-12-18T10:52:29.379Z,-0.14
2022-12-18T10:55:04.302Z,-0.21
2022-12-18T10:57:38.211Z,-0.31
2022-12-18T11:00:32.760Z,-0.36
2022-12-18T11:03:03.696Z,-0.36
2022-12-18T11:05:37.909Z,-0.34
2022-12-18T11:08:22.408Z,-0.33
2022-12-18T11:10:53.153Z,-0.33
2022-12-18T11:13:25.158Z,-0.33
2022-12-18T11:15:56.148Z,-0.33
2022-12-18T11:18:30.881Z,-0.29
2022-12-18T11:21:08.299Z,-0.32
2022-12-18T11:23:48.387Z,-0.33
2022-12-18T11:26:19.422Z,-0.33
2022-12-18T11:28:53.533Z,-0.32
2022-12-18T11:31:29.676Z,-0.30
2022-12-18T11:34:28.813Z,-0.31
2022-12-18T11:37:03.111Z,-0.30
2022-12-18T11:39:36.196Z,-0.30
2022-12-18T11:42:12.800Z,-0.32
2022-12-18T11:44:49.651Z,-0.36
2022-12-18T11:47:35.525Z,-0.39
2022-12-18T11:50:15.106Z,-0.49
2022-12-18T11:52:46.117Z,-0.54
2022-12-18T11:55:26.145Z,-0.52
2022-12-18T11:58:05.427Z,-0.53
2022-12-18T12:00:38.411Z,-0.51
2022-12-18T12:03:42.090Z,-0.50
2022-12-18T12:06:21.688Z,-0.56
2022-12-18T12:09:00.543Z,-0.59
2022-12-18T12:11:43.306Z,-0.63
2022-12-18T12:14:44.524Z,-0.63
2022-12-18T12:17:25.121Z,-0.63
2022-12-18T12:20:04.000Z,-0.65
2022-12-18T12:22:45.030Z,-0.69
2022-12-18T12:25:31.651Z,-0.73
2022-12-18T12:28:21.303Z,-0.76
2022-12-18T12:31:06.914Z,-0.80
2022-12-18T12:33:49.336Z,-0.85
2022-12-18T12:36:28.532Z,-0.87
2022-12-18T12:39:03.736Z,-0.90
2022-12-18T12:41:54.646Z,-0.94
2022-12-18T12:44:30.459Z,-1.01
2022-12-18T12:47:09.293Z,-1.08
2022-12-18T12:49:41.900Z,-1.08
2022-12-18T12:52:21.005Z,-1.13
2022-12-18T12:54:53.250Z,-1.17
2022-12-18T12:57:33.413Z,-1.22
2022-12-18T13:00:09.042Z,-1.27
2022-12-18T13:02:46.835Z,-1.34
2022-12-18T13:05:26.730Z,-1.40
2022-12-18T13:07:59.282Z,-1.48
2022-12-18T13:10:38.940Z,-1.54
2022-12-18T13:13:13.424Z,-1.61
2022-12-18T13:15:47.480Z,-1.68
2022-12-18T13:18:23.558Z,-1.77
2022-12-18T13:21:10.222Z,-1.85
2022-12-18T13:23:45.747Z,-1.92
2022-12-18T13:26:38.268Z,-2.00
2022-12-18T13:29:08.958Z,-2.06
2022-12-18T13:32:24.147Z,-2.10
2022-12-18T13:35:26.868Z,-2.17
2022-12-18T13:37:58.745Z,-2.20
2022-12-18T13:41:02.023Z,-2.21
2022-12-18T13:43:38.327Z,-2.21
2022-12-18T13:46:30.525Z,-2.14
2022-12-18T13:49:05.476Z,-2.07
2022-12-18T13:51:41.370Z,-2.01
2022-12-18T13:54:24.163Z,-1.97
2022-12-18T13:56:55.156Z,-1.97
2022-12-18T13:59:27.314Z,-1.95
2022-12-18T14:02:00.214Z,-1.95
2022-12-18T14:04:35.071Z,-2.01
2022-12-18T14:07:09.635Z,-2.06
2022-12-18T14:09:44.857Z,-2.14
2022-12-18T14:12:40.652Z,-2.18
2022-12-18T14:15:28.487Z,-2.26
2022-12-18T14:18:02.005Z,-2.33
2022-12-18T14:20:35.173Z,-2.40
2022-12-18T14:23:05.838Z,-2.45
2022-12-18T14:25:36.810Z,-2.49
2022-12-18T14:28:17.873Z,-2.53
2022-12-18T14:30:49.858Z,-2.55
2022-12-18T14:33:22.885Z,-2.53
2022-12-18T14:36:04.763Z,-2.51
2022-12-18T14:38:37.797Z,-2.52
2022-12-18T14:41:12.550Z,-2.56
2022-12-18T14:43:45.545Z,-2.65
2022-12-18T14:46:36.333Z,-2.71
2022-12-18T14:49:20.767Z,-2.78
2022-12-18T14:51:53.966Z,-2.82
2022-12-18T14:54:26.358Z,-2.86
2022-12-18T14:57:04.551Z,-2.90
2022-12-18T14:59:35.698Z,-2.94
2022-12-18T15:02:16.219Z,-3.00
2022-12-18T15:04:47.516Z,-3.04
2022-12-18T15:07:21.082Z,-3.08
2022-12-18T15:10:12.937Z,-3.10
2022-12-18T15:12:45.855Z,-3.11
2022-12-18T15:15:49.259Z,-3.09
2022-12-18T15:18:23.989Z,-3.09
2022-12-18T15:20:56.961Z,-3.11
2022-12-18T15:23:30.494Z,-3.17
2022-12-18T15:26:02.953Z,-3.21
2022-12-18T15:28:39.058Z,-3.25
2022-12-18T15:31:26.333Z,-3.30
2022-12-18T15:34:15.461Z,-3.35
2022-12-18T15:36:46.380Z,-3.40
2022-12-18T15:39:17.210Z,-3.45
2022-12-18T15:42:02.492Z,-3.48
2022-12-18T15:44:33.655Z,-3.48
2022-12-18T15:47:04.580Z,-3.45
2022-12-18T15:49:35.302Z,-3.44
2022-12-18T15:52:06.630Z,-3.43
2022-12-18T15:54:55.144Z,-3.46
2022-12-18T15:57:25.878Z,-3.49
2022-12-18T15:59:59.399Z,-3.52
2022-12-18T16:02:30.806Z,-3.56
2022-12-18T16:05:01.564Z,-3.61
2022-12-18T16:07:32.245Z,-3.63
2022-12-18T16:10:03.342Z,-3.62
2022-12-18T16:12:34.633Z,-3.60
2022-12-18T16:15:08.893Z,-3.57
2022-12-18T16:17:39.991Z,-3.57
2022-12-18T16:20:17.005Z,-3.58
2022-12-18T16:22:48.794Z,-3.61
2022-12-18T16:25:26.339Z,-3.66
2022-12-18T16:27:57.742Z,-3.70
2022-12-18T16:30:37.892Z,-3.72
2022-12-18T16:33:10.640Z,-3.73
2022-12-18T16:35:41.670Z,-3.71
2022-12-18T16:38:13.508Z,-3.69
2022-12-18T16:40:58.112Z,-3.67
2022-12-18T16:43:28.950Z,-3.67
2022-12-18T16:46:02.547Z,-3.68
2022-12-18T16:48:35.559Z,-3.69
2022-12-18T16:51:07.905Z,-3.69
2022-12-18T16:53:38.851Z,-3.70
2022-12-18T16:56:10.329Z,-3.72
2022-12-18T16:58:41.061Z,-3.68
2022-12-18T17:01:13.686Z,-3.63
2022-12-18T17:03:44.984Z,-3.59
2022-12-18T17:06:17.332Z,-3.56
2022-12-18T17:08:50.047Z,-3.54
2022-12-18T17:11:21.470Z,-3.55
2022-12-18T17:13:52.320Z,-3.57
2022-12-18T17:16:23.775Z,-3.59
2022-12-18T17:18:55.363Z,-3.61
2022-12-18T17:21:26.453Z,-3.64
2022-12-18T17:24:02.474Z,-3.63
2022-12-18T17:26:33.443Z,-3.60
2022-12-18T17:29:04.505Z,-3.58
2022-12-18T17:31:35.925Z,-3.56
2022-12-18T17:34:09.372Z,-3.56
2022-12-18T17:36:41.643Z,-3.56
2022-12-18T17:39:20.659Z,-3.56
2022-12-18T17:41:52.321Z,-3.57
2022-12-18T17:44:23.286Z,-3.60
2022-12-18T17:46:54.480Z,-3.59
2022-12-18T17:49:26.244Z,-3.54
2022-12-18T17:51:57.826Z,-3.50
2022-12-18T17:54:29.036Z,-3.46
2022-12-18T17:57:00.228Z,-3.45
2022-12-18T17:59:31.190Z,-3.47
2022-12-18T18:02:02.458Z,-3.48
2022-12-18T18:04:33.779Z,-3.48
2022-12-18T18:07:04.623Z,-3.49
2022-12-18T18:09:35.383Z,-3.50
2022-12-18T18:12:24.392Z,-3.49
2022-12-18T18:14:55.395Z,-3.43
2022-12-18T18:17:26.415Z,-3.37
2022-12-18T18:19:57.031Z,-3.33
2022-12-18T18:22:27.967Z,-3.31
2022-12-18T18:24:59.459Z,-3.31
2022-12-18T18:27:38.241Z,-3.30
2022-12-18T18:30:12.727Z,-3.32
2022-12-18T18:32:43.392Z,-3.34
2022-12-18T18:35:37.488Z,-3.37
2022-12-18T18:38:05.453Z,-3.39
2022-12-18T18:40:36.296Z,-3.35
2022-12-18T18:43:06.978Z,-3.30
2022-12-18T18:45:37.993Z,-3.24
2022-12-18T18:48:10.486Z,-3.22
2022-12-18T18:50:44.004Z,-3.19
2022-12-18T18:53:14.743Z,-3.19
2022-12-18T18:55:45.334Z,-3.19
2022-12-18T18:58:16.022Z,-3.23
2022-12-18T19:00:47.006Z,-3.24
2022-12-18T19:03:21.230Z,-3.24
2022-12-18T19:05:56.002Z,-3.20
2022-12-18T19:08:27.562Z,-3.14
2022-12-18T19:11:00.599Z,-3.10
2022-12-18T19:13:34.405Z,-3.07
2022-12-18T19:16:09.297Z,-3.08
2022-12-18T19:18:41.216Z,-3.09
2022-12-18T19:21:13.755Z,-3.10
2022-12-18T19:23:44.587Z,-3.13
2022-12-18T19:26:31.163Z,-3.15
2022-12-18T19:29:05.049Z,-3.16
2022-12-18T19:31:37.185Z,-3.16
2022-12-18T19:34:09.030Z,-3.11
2022-12-18T19:36:41.522Z,-3.08
2022-12-18T19:39:15.585Z,-3.06
2022-12-18T19:41:47.089Z,-3.06
2022-12-18T19:44:18.807Z,-3.07
2022-12-18T19:46:52.627Z,-3.09
2022-12-18T19:49:26.354Z,-3.11
2022-12-18T19:51:57.111Z,-3.12
2022-12-18T19:54:27.904Z,-3.13
2022-12-18T19:56:58.600Z,-3.10
2022-12-18T19:59:29.294Z,-3.06
2022-12-18T20:02:00.215Z,-3.04
2022-12-18T20:04:32.073Z,-3.02
2022-12-18T20:07:03.315Z,-3.02
2022-12-18T20:09:34.386Z,-3.01
2022-12-18T20:12:06.106Z,-3.01
2022-12-18T20:14:36.585Z,-3.01
2022-12-18T20:17:07.552Z,-3.02
2022-12-18T20:19:39.181Z,-3.01
2022-12-18T20:22:10.897Z,-2.96
2022-12-18T20:24:41.904Z,-2.90
2022-12-18T20:27:17.186Z,-2.85
2022-12-18T20:29:50.171Z,-2.82
2022-12-18T20:32:20.953Z,-2.80
2022-12-18T20:34:51.885Z,-2.79
2022-12-18T20:37:24.613Z,-2.79
2022-12-18T20:39:55.673Z,-2.81
2022-12-18T20:42:28.110Z,-2.81
2022-12-18T20:45:00.312Z,-2.83
2022-12-18T20:47:31.044Z,-2.83
2022-12-18T20:50:02.013Z,-2.81
2022-12-18T20:52:32.623Z,-2.78
2022-12-18T20:55:07.454Z,-2.74
2022-12-18T20:57:39.012Z,-2.71
2022-12-18T21:00:12.366Z,-2.69
2022-12-18T21:02:45.390Z,-2.66
2022-12-18T21:05:16.355Z,-2.65
2022-12-18T21:07:47.287Z,-2.65
2022-12-18T21:10:18.127Z,-2.64
2022-12-18T21:12:58.743Z,-2.64
2022-12-18T21:15:33.990Z,-2.62
2022-12-18T21:18:04.771Z,-2.60
2022-12-18T21:20:35.762Z,-2.54
2022-12-18T21:23:16.583Z,-2.49
2022-12-18T21:25:49.528Z,-2.44
2022-12-18T21:28:26.729Z,-2.42
2022-12-18T21:30:57.965Z,-2.43
2022-12-18T21:33:29.200Z,-2.45
2022-12-18T21:35:59.968Z,-2.46
2022-12-18T21:38:32.028Z,-2.49
2022-12-18T21:41:06.301Z,-2.51
2022-12-18T21:44:10.072Z,-2.53
2022-12-18T21:46:40.353Z,-2.56
2022-12-18T21:49:14.603Z,-2.57
2022-12-18T21:51:46.126Z,-2.57
2022-12-18T21:54:16.817Z,-2.55
2022-12-18T21:56:53.025Z,-2.52
2022-12-18T21:59:25.649Z,-2.51
2022-12-18T22:01:58.321Z,-2.51
2022-12-18T22:04:29.794Z,-2.54
2022-12-18T22:07:05.767Z,-2.57
2022-12-18T22:09:36.502Z,-2.59
2022-12-18T22:12:08.934Z,-2.59
2022-12-18T22:14:39.807Z,-2.63
2022-12-18T22:17:11.159Z,-2.65
2022-12-18T22:19:43.214Z,-2.66
2022-12-18T22:22:14.374Z,-2.65
2022-12-18T22:24:45.034Z,-2.64
2022-12-18T22:27:15.800Z,-2.63
2022-12-18T22:30:05.044Z,-2.65
2022-12-18T22:32:37.318Z,-2.68
2022-12-18T22:35:15.634Z,-2.70
2022-12-18T22:37:48.355Z,-2.73
2022-12-18T22:40:25.306Z,-2.77
2022-12-18T22:42:57.228Z,-2.80
2022-12-18T22:45:29.199Z,-2.79
2022-12-18T22:48:00.048Z,-2.78
2022-12-18T22:50:33.753Z,-2.77
2022-12-18T22:53:04.580Z,-2.77
2022-12-18T22:55:35.279Z,-2.78
2022-12-18T22:58:06.538Z,-2.81
2022-12-18T23:00:37.346Z,-2.83
2022-12-18T23:03:09.750Z,-2.86
2022-12-18T23:05:40.727Z,-2.89
2022-12-18T23:08:11.351Z,-2.92
2022-12-18T23:10:42.070Z,-2.91
2022-12-18T23:13:12.781Z,-2.90
2022-12-18T23:15:45.400Z,-2.89
2022-12-18T23:18:16.129Z,-2.91
2022-12-18T23:20:46.819Z,-2.92
2022-12-18T23:23:18.485Z,-2.95
2022-12-18T23:25:49.255Z,-3.00
2022-12-18T23:28:20.113Z,-3.06
2022-12-18T23:30:50.743Z,-3.11
2022-12-18T23:33:21.584Z,-3.12
2022-12-18T23:35:52.218Z,-3.13
2022-12-18T23:38:22.849Z,-3.15
2022-12-18T23:40:56.324Z,-3.17
2022-12-18T23:43:28.159Z,-3.20
2022-12-18T23:45:58.818Z,-3.24
2022-12-18T23:48:29.542Z,-3.29
2022-12-18T23:51:05.114Z,-3.32
2022-12-18T23:53:36.369Z,-3.31
2022-12-18T23:56:10.895Z,-3.30
2022-12-18T23:58:43.012Z,-3.30
